Time;durP1;ratioP1;P1;durP2;ratioP2;P2;SDS_P1;SDS_P2;PMS_P1;PMS_P2;Temp;Humidity;BMP_temperature;BMP_pressure;BME280_temperature;BME280_humidity;BME280_pressure;Samples;Min_cycle;Max_cycle;Signal;HPM_P1;HPM_P2
2021/08/14 00:00:57;;;;;;;10.53;9.40;;;19.90;99.90;;;;;;6236291;23;20474;-93
2021/08/14 00:03:22;;;;;;;10.63;9.53;;;20.00;99.90;;;;;;6256713;22;20405;-92
2021/08/14 00:05:48;;;;;;;11.80;10.60;;;19.90;99.90;;;;;;6231741;23;20417;-92
2021/08/14 00:08:14;;;;;;;11.30;10.10;;;19.80;99.90;;;;;;6233773;23;20159;-94
2021/08/14 00:10:39;;;;;;;10.80;9.13;;;19.70;99.90;;;;;;6230353;23;20619;-93
2021/08/14 00:13:05;;;;;;;10.90;9.90;;;19.70;99.90;;;;;;6234675;23;20248;-93
2021/08/14 00:15:31;;;;;;;11.60;10.50;;;19.60;99.90;;;;;;6233624;23;20483;-94
2021/08/14 00:17:56;;;;;;;11.17;9.90;;;19.70;99.90;;;;;;6233500;23;20170;-94
2021/08/14 00:20:22;;;;;;;11.80;10.60;;;19.80;99.90;;;;;;6232400;23;20269;-95
2021/08/14 00:22:48;;;;;;;10.83;9.93;;;19.80;99.90;;;;;;6233886;23;20601;-94
2021/08/14 00:25:14;;;;;;;10.77;9.27;;;19.80;99.90;;;;;;6232988;23;20167;-94
2021/08/14 00:27:39;;;;;;;9.50;8.60;;;19.80;99.90;;;;;;6232119;23;20174;-92
2021/08/14 00:30:06;;;;;;;10.80;9.30;;;19.70;99.90;;;;;;6232716;23;20163;-93
2021/08/14 00:32:31;;;;;;;10.60;9.70;;;19.70;99.90;;;;;;6232880;23;20633;-93
2021/08/14 00:34:57;;;;;;;13.40;9.50;;;19.70;99.90;;;;;;6232350;23;20404;-92
2021/08/14 00:37:23;;;;;;;11.27;9.50;;;19.60;99.90;;;;;;6232723;23;20617;-92
2021/08/14 00:39:50;;;;;;;10.33;9.53;;;19.50;99.90;;;;;;6233490;23;20166;-93
2021/08/14 00:42:15;;;;;;;12.07;10.87;;;19.30;99.90;;;;;;6234368;22;20413;-92
2021/08/14 00:44:41;;;;;;;11.50;10.40;;;19.20;99.90;;;;;;6232568;23;20485;-93
2021/08/14 00:47:10;;;;;;;13.17;11.97;;;19.20;99.90;;;;;;6233377;23;20224;-93
2021/08/14 00:49:44;;;;;;;12.23;10.67;;;19.10;99.90;;;;;;6233374;23;20163;-94
2021/08/14 00:52:23;;;;;;;12.80;11.53;;;19.00;99.90;;;;;;6233183;23;20441;-94
2021/08/14 00:54:49;;;;;;;11.97;10.90;;;19.00;99.90;;;;;;6232149;23;20469;-93
2021/08/14 00:57:16;;;;;;;11.77;10.70;;;19.00;99.90;;;;;;6230710;23;20900;-92
2021/08/14 00:59:43;;;;;;;12.37;11.20;;;19.00;99.90;;;;;;6233659;23;21451;-93
2021/08/14 01:02:11;;;;;;;12.47;11.27;;;18.90;99.90;;;;;;6231874;23;20405;-93
2021/08/14 01:04:38;;;;;;;12.27;11.13;;;18.90;99.90;;;;;;6231255;23;20494;-90
2021/08/14 01:07:04;;;;;;;12.50;11.33;;;18.90;99.90;;;;;;6234279;22;20457;-92
2021/08/14 01:09:29;;;;;;;11.60;10.50;;;19.10;99.90;;;;;;6233815;23;20173;-92
2021/08/14 01:11:56;;;;;;;11.43;10.40;;;19.10;99.90;;;;;;6231948;23;20698;-92
2021/08/14 01:14:22;;;;;;;12.97;11.40;;;19.10;99.90;;;;;;6232492;23;20162;-88
2021/08/14 01:16:48;;;;;;;10.60;9.60;;;19.10;99.90;;;;;;6234709;23;20732;-90
2021/08/14 01:19:18;;;;;;;10.03;9.07;;;19.10;99.90;;;;;;6231776;23;20473;-93
2021/08/14 01:21:50;;;;;;;11.00;9.90;;;19.10;99.90;;;;;;6232116;23;20166;-92
2021/08/14 01:24:16;;;;;;;10.37;9.47;;;19.10;99.90;;;;;;6227266;23;20927;-92
2021/08/14 01:26:43;;;;;;;10.23;9.23;;;19.00;99.90;;;;;;6234070;23;20398;-92
2021/08/14 01:29:09;;;;;;;10.27;9.43;;;19.00;99.90;;;;;;6230231;23;20809;-92
2021/08/14 01:31:35;;;;;;;12.00;10.80;;;19.10;99.90;;;;;;6232641;23;20441;-93
2021/08/14 01:34:01;;;;;;;13.23;11.67;;;19.00;99.90;;;;;;6232102;23;20397;-93
2021/08/14 01:36:26;;;;;;;10.97;9.90;;;19.10;99.90;;;;;;6233108;23;20762;-93
2021/08/14 01:38:57;;;;;;;12.00;10.90;;;19.20;99.90;;;;;;6232197;23;20228;-92
2021/08/14 01:41:23;;;;;;;11.73;10.53;;;19.20;99.90;;;;;;6233900;23;20174;-92
2021/08/14 01:44:07;;;;;;;12.60;11.40;;;19.20;99.90;;;;;;6207554;23;20876;-93
2021/08/14 01:46:37;;;;;;;13.00;11.70;;;19.30;99.90;;;;;;6234083;23;20405;-93
2021/08/14 01:49:03;;;;;;;12.47;11.10;;;19.10;99.90;;;;;;6234583;23;20799;-92
2021/08/14 01:51:31;;;;;;;11.93;10.83;;;18.90;99.90;;;;;;6235353;23;20495;-91
2021/08/14 01:53:58;;;;;;;12.77;11.53;;;18.80;99.90;;;;;;6235291;23;20697;-92
2021/08/14 01:56:25;;;;;;;12.43;10.97;;;18.80;99.90;;;;;;6234173;23;20398;-91
2021/08/14 01:58:51;;;;;;;13.57;10.90;;;18.80;99.90;;;;;;6236181;23;20386;-94
2021/08/14 02:01:17;;;;;;;12.27;11.07;;;18.80;99.90;;;;;;6234504;23;20459;-94
2021/08/14 02:03:46;;;;;;;11.50;10.47;;;18.70;99.90;;;;;;6234452;23;20163;-93
2021/08/14 02:06:12;;;;;;;11.67;10.50;;;18.70;99.90;;;;;;6236021;23;20475;-94
2021/08/14 02:08:37;;;;;;;12.70;11.40;;;18.70;99.90;;;;;;6234402;23;20405;-92
2021/08/14 02:11:17;;;;;;;12.07;10.87;;;18.70;99.90;;;;;;6232985;23;20240;-92
2021/08/14 02:13:47;;;;;;;12.30;11.20;;;18.60;99.90;;;;;;6235147;23;20193;-92
2021/08/14 02:16:12;;;;;;;11.60;10.60;;;18.40;99.90;;;;;;6236845;23;20421;-92
2021/08/14 02:18:44;;;;;;;12.90;11.20;;;18.40;99.90;;;;;;6233369;23;20393;-92
2021/08/14 02:21:10;;;;;;;12.33;11.30;;;18.50;99.90;;;;;;6231056;23;20218;-92
2021/08/14 02:23:36;;;;;;;11.50;10.50;;;18.50;99.90;;;;;;6232340;23;20397;-93
2021/08/14 02:26:03;;;;;;;13.17;11.23;;;18.50;99.90;;;;;;6233675;23;20228;-93
2021/08/14 02:28:29;;;;;;;11.40;10.40;;;18.40;99.90;;;;;;6233732;23;20408;-92
2021/08/14 02:30:56;;;;;;;13.07;11.70;;;18.40;99.90;;;;;;6235158;23;20677;-92
2021/08/14 02:33:23;;;;;;;14.17;11.27;;;18.50;99.90;;;;;;6233346;23;20401;-92
2021/08/14 02:35:49;;;;;;;12.37;11.27;;;18.60;99.90;;;;;;6235208;23;20448;-92
2021/08/14 02:38:15;;;;;;;11.87;10.87;;;18.70;99.90;;;;;;6236182;22;20937;-92
2021/08/14 02:40:40;;;;;;;12.43;11.37;;;18.70;99.90;;;;;;6233622;23;20163;-92
2021/08/14 02:43:06;;;;;;;15.70;11.87;;;18.70;99.90;;;;;;6234670;23;20413;-90
2021/08/14 02:45:33;;;;;;;12.83;11.70;;;18.80;99.90;;;;;;6234952;23;20252;-91
2021/08/14 02:48:00;;;;;;;13.03;11.73;;;18.70;99.90;;;;;;6233304;23;20491;-91
2021/08/14 02:50:27;;;;;;;12.50;11.40;;;18.80;99.90;;;;;;6231251;23;20408;-91
2021/08/14 02:52:52;;;;;;;12.10;11.00;;;18.80;99.90;;;;;;6231898;23;20477;-91
2021/08/14 02:55:18;;;;;;;12.00;10.80;;;18.80;99.90;;;;;;6234162;23;20886;-91
2021/08/14 02:57:44;;;;;;;12.70;11.60;;;18.80;99.90;;;;;;6235354;22;20174;-91
2021/08/14 03:00:10;;;;;;;13.50;12.10;;;18.80;99.90;;;;;;6232860;23;20443;-91
2021/08/14 03:02:36;;;;;;;13.57;12.17;;;18.80;99.90;;;;;;6228457;23;20250;-90
2021/08/14 03:05:02;;;;;;;11.43;10.40;;;18.80;99.90;;;;;;6232466;23;20429;-90
2021/08/14 03:07:31;;;;;;;11.90;10.53;;;18.70;99.90;;;;;;6233689;23;20163;-90
2021/08/14 03:09:57;;;;;;;11.10;10.20;;;18.70;99.90;;;;;;6233804;22;20386;-90
2021/08/14 03:12:22;;;;;;;13.37;12.07;;;18.70;99.90;;;;;;6230798;23;20444;-91
2021/08/14 03:14:48;;;;;;;12.67;11.57;;;18.70;99.90;;;;;;6232617;23;20201;-91
2021/08/14 03:17:14;;;;;;;12.47;11.20;;;18.70;99.90;;;;;;6232561;23;20678;-90
2021/08/14 03:19:40;;;;;;;12.63;11.37;;;18.60;99.90;;;;;;6231848;23;20599;-91
2021/08/14 03:22:06;;;;;;;13.70;12.37;;;18.70;99.90;;;;;;6233206;23;20159;-90
2021/08/14 03:24:32;;;;;;;12.63;11.23;;;18.70;99.90;;;;;;6231333;23;20409;-91
2021/08/14 03:26:58;;;;;;;13.60;12.20;;;18.80;99.90;;;;;;6233159;23;20159;-90
2021/08/14 03:29:23;;;;;;;13.30;12.10;;;18.70;99.90;;;;;;6233007;23;20171;-91
2021/08/14 03:31:49;;;;;;;12.87;11.60;;;18.70;99.90;;;;;;6233633;23;21032;-89
2021/08/14 03:34:15;;;;;;;12.93;11.73;;;18.70;99.90;;;;;;6233421;23;20250;-90
2021/08/14 03:36:41;;;;;;;13.70;11.37;;;18.60;99.90;;;;;;6232741;23;20306;-90
2021/08/14 03:39:06;;;;;;;12.47;11.00;;;18.60;99.90;;;;;;6232562;23;20569;-91
2021/08/14 03:41:34;;;;;;;12.73;11.63;;;18.40;99.90;;;;;;6233459;23;20830;-90
2021/08/14 03:44:00;;;;;;;13.20;12.10;;;18.30;99.90;;;;;;6234613;23;20228;-92
2021/08/14 03:46:29;;;;;;;13.23;12.00;;;18.20;99.90;;;;;;6234270;23;20408;-92
2021/08/14 03:48:55;;;;;;;15.43;11.80;;;18.20;99.90;;;;;;6235038;23;20456;-91
2021/08/14 03:51:20;;;;;;;12.83;11.63;;;18.20;99.90;;;;;;6234839;23;20425;-92
2021/08/14 03:54:04;;;;;;;13.10;11.90;;;18.30;99.90;;;;;;6233898;23;20246;-92
2021/08/14 03:56:43;;;;;;;13.10;11.80;;;18.40;99.90;;;;;;6235210;23;20225;-91
2021/08/14 03:59:09;;;;;;;12.53;11.33;;;18.30;99.90;;;;;;6260620;22;20393;-90
2021/08/14 04:01:35;;;;;;;14.00;12.70;;;18.30;99.90;;;;;;6233829;23;20443;-91
2021/08/14 04:04:00;;;;;;;14.50;11.60;;;18.30;99.90;;;;;;6233252;23;20159;-91
2021/08/14 04:06:26;;;;;;;12.07;11.03;;;18.30;99.90;;;;;;6235888;23;20178;-91
2021/08/14 04:08:52;;;;;;;13.43;12.13;;;18.30;99.90;;;;;;6233287;23;20190;-92
2021/08/14 04:11:17;;;;;;;14.07;12.63;;;18.20;99.90;;;;;;6232143;23;20191;-91
2021/08/14 04:13:43;;;;;;;12.40;11.30;;;18.20;99.90;;;;;;6232785;23;20641;-92
2021/08/14 04:16:09;;;;;;;15.13;12.10;;;18.20;99.90;;;;;;6233118;23;20209;-92
2021/08/14 04:21:18;;;;;;;12.33;11.23;;;18.10;99.90;;;;;;6234759;22;20154;-93
2021/08/14 04:23:43;;;;;;;12.77;11.47;;;18.00;99.90;;;;;;6232632;23;20431;-92
2021/08/14 04:26:09;;;;;;;12.30;11.20;;;18.00;99.90;;;;;;6232170;23;20496;-91
2021/08/14 04:28:35;;;;;;;13.47;12.17;;;18.10;99.90;;;;;;6233532;23;20174;-92
2021/08/14 04:31:00;;;;;;;12.37;11.10;;;18.10;99.90;;;;;;6234833;23;20158;-92
2021/08/14 04:33:26;;;;;;;12.73;11.53;;;18.00;99.90;;;;;;6233403;23;20633;-91
2021/08/14 04:35:52;;;;;;;13.10;11.80;;;17.90;99.90;;;;;;6233644;23;20243;-91
2021/08/14 04:38:17;;;;;;;14.83;12.93;;;17.90;99.90;;;;;;6232379;23;20162;-91
2021/08/14 04:40:44;;;;;;;12.80;11.60;;;17.90;99.90;;;;;;6232393;23;20661;-91
2021/08/14 04:43:10;;;;;;;13.70;11.77;;;17.90;99.90;;;;;;6230886;23;20197;-92
2021/08/14 04:45:35;;;;;;;13.00;11.90;;;17.90;99.90;;;;;;6234309;23;20402;-91
2021/08/14 04:48:01;;;;;;;13.40;11.37;;;18.00;99.90;;;;;;6231387;23;20159;-91
2021/08/14 04:50:27;;;;;;;13.33;11.97;;;18.00;99.90;;;;;;6232640;23;20173;-91
2021/08/14 04:52:52;;;;;;;13.60;12.30;;;18.00;99.90;;;;;;6228266;23;20698;-91
2021/08/14 04:55:18;;;;;;;13.47;12.27;;;18.10;99.90;;;;;;6231701;23;20280;-91
2021/08/14 04:57:43;;;;;;;12.50;11.40;;;18.10;99.90;;;;;;6233936;23;20722;-90
2021/08/14 05:00:10;;;;;;;14.50;13.10;;;18.20;99.90;;;;;;6230747;23;20202;-90
2021/08/14 05:02:35;;;;;;;14.20;12.80;;;18.20;99.90;;;;;;6232174;23;20241;-91
2021/08/14 05:05:01;;;;;;;14.13;12.70;;;18.10;99.90;;;;;;6231673;23;20456;-91
2021/08/14 05:07:26;;;;;;;13.47;12.10;;;18.10;99.90;;;;;;6232485;23;20501;-91
2021/08/14 05:09:53;;;;;;;14.63;13.10;;;18.10;99.90;;;;;;6232996;23;20609;-92
2021/08/14 05:12:18;;;;;;;13.23;12.00;;;18.20;99.90;;;;;;6231055;23;20190;-91
2021/08/14 05:14:44;;;;;;;14.10;12.80;;;18.20;99.90;;;;;;6233007;23;20397;-90
2021/08/14 05:17:10;;;;;;;14.23;12.83;;;18.20;99.90;;;;;;6230839;23;20162;-93
2021/08/14 05:19:38;;;;;;;14.23;12.93;;;18.20;99.90;;;;;;6207415;23;20505;-93
2021/08/14 05:22:03;;;;;;;14.57;13.27;;;18.20;99.90;;;;;;6233761;23;20159;-91
2021/08/14 05:24:29;;;;;;;14.10;12.70;;;18.30;99.90;;;;;;6234905;23;20386;-92
2021/08/14 05:26:55;;;;;;;15.77;14.03;;;18.40;99.90;;;;;;6235637;23;20219;-91
2021/08/14 05:29:20;;;;;;;14.10;12.73;;;18.40;99.90;;;;;;6235643;23;20163;-92
2021/08/14 05:31:48;;;;;;;16.90;12.90;;;18.50;99.90;;;;;;6236416;23;20628;-92
2021/08/14 05:34:28;;;;;;;15.30;13.90;;;18.50;99.90;;;;;;6234469;23;20191;-92
2021/08/14 05:37:00;;;;;;;15.47;14.03;;;18.60;99.90;;;;;;6229447;22;20404;-91
2021/08/14 05:39:26;;;;;;;18.13;14.50;;;18.60;99.90;;;;;;6233406;22;20389;-90
2021/08/14 05:41:52;;;;;;;15.23;13.90;;;18.70;99.90;;;;;;6232740;23;20416;-93
2021/08/14 05:44:20;;;;;;;15.40;14.00;;;18.70;99.90;;;;;;6233244;23;20169;-88
2021/08/14 05:46:45;;;;;;;12.90;11.70;;;18.70;99.90;;;;;;6232536;23;20416;-93
2021/08/14 05:49:14;;;;;;;14.07;12.63;;;18.80;99.90;;;;;;6233393;23;20473;-95
2021/08/14 05:51:41;;;;;;;16.10;13.83;;;18.90;99.90;;;;;;6232133;23;20537;-95
2021/08/14 05:54:15;;;;;;;13.63;12.30;;;19.00;99.90;;;;;;6243648;23;20167;-95
2021/08/14 05:56:41;;;;;;;14.93;13.40;;;19.10;99.90;;;;;;6248544;23;20405;-96
2021/08/14 05:59:06;;;;;;;14.47;13.07;;;19.20;99.90;;;;;;6236944;22;20386;-87
2021/08/14 06:01:32;;;;;;;16.37;13.53;;;19.30;99.90;;;;;;6233822;22;20170;-89
2021/08/14 06:03:58;;;;;;;14.73;12.97;;;19.40;99.90;;;;;;6232188;23;20521;-87
2021/08/14 06:06:23;;;;;;;15.57;14.10;;;19.40;99.90;;;;;;6233014;22;20186;-86
2021/08/14 06:08:49;;;;;;;13.93;12.53;;;19.40;99.90;;;;;;6233844;22;20155;-86
2021/08/14 06:11:14;;;;;;;15.07;13.63;;;19.50;99.90;;;;;;6230510;22;20263;-86
2021/08/14 06:13:40;;;;;;;14.00;12.67;;;19.60;99.90;;;;;;6232621;22;20163;-87
2021/08/14 06:16:09;;;;;;;14.73;13.23;;;19.70;99.90;;;;;;6230866;23;20155;-88
2021/08/14 06:18:35;;;;;;;14.53;13.00;;;19.70;99.90;;;;;;6232939;23;20185;-88
2021/08/14 06:21:04;;;;;;;15.57;13.97;;;19.80;99.90;;;;;;6231363;23;20472;-88
2021/08/14 06:23:29;;;;;;;13.67;12.37;;;20.00;99.90;;;;;;6232074;23;20405;-88
2021/08/14 06:25:55;;;;;;;14.73;13.13;;;20.20;99.90;;;;;;6230148;23;20402;-86
2021/08/14 06:28:21;;;;;;;13.50;12.20;;;20.40;99.90;;;;;;6231078;23;20593;-86
2021/08/14 06:30:46;;;;;;;12.77;11.57;;;20.40;99.90;;;;;;6230757;23;20167;-87
2021/08/14 06:33:12;;;;;;;14.30;12.80;;;20.40;99.90;;;;;;6230996;23;20203;-87
2021/08/14 06:35:38;;;;;;;14.50;13.20;;;20.50;99.90;;;;;;6231437;23;20707;-90
2021/08/14 06:38:03;;;;;;;13.43;12.23;;;20.60;99.90;;;;;;6232707;23;20158;-88
2021/08/14 06:40:29;;;;;;;13.53;12.20;;;20.70;99.90;;;;;;6230709;23;20185;-88
2021/08/14 06:42:55;;;;;;;13.53;11.40;;;20.90;99.90;;;;;;6230003;23;20249;-89
2021/08/14 06:45:21;;;;;;;12.00;10.90;;;21.00;99.90;;;;;;6225519;23;20171;-88
2021/08/14 06:47:50;;;;;;;12.73;11.63;;;21.10;99.90;;;;;;6232593;23;20163;-89
2021/08/14 06:50:18;;;;;;;12.87;11.63;;;21.00;99.90;;;;;;6230949;23;20396;-90
2021/08/14 06:52:47;;;;;;;13.03;11.87;;;21.00;99.90;;;;;;6228887;23;20776;-87
2021/08/14 06:55:13;;;;;;;12.73;11.53;;;21.10;99.90;;;;;;6205015;23;20506;-88
2021/08/14 06:57:41;;;;;;;13.17;11.87;;;21.20;99.90;;;;;;6231418;23;20525;-88
2021/08/14 07:00:08;;;;;;;12.80;11.60;;;21.30;99.90;;;;;;6230551;23;20167;-90
2021/08/14 07:02:41;;;;;;;12.83;11.63;;;21.30;99.90;;;;;;6229344;23;20410;-90
2021/08/14 07:05:08;;;;;;;12.70;11.50;;;21.30;99.90;;;;;;6231859;23;20715;-89
2021/08/14 07:07:37;;;;;;;13.30;12.00;;;21.40;99.90;;;;;;6233060;23;20409;-89
2021/08/14 07:10:05;;;;;;;14.33;10.90;;;21.40;99.90;;;;;;6231716;23;20439;-89
2021/08/14 07:12:43;;;;;;;12.10;10.90;;;21.40;99.90;;;;;;6233831;23;20461;-91
2021/08/14 07:15:25;;;;;;;12.10;10.80;;;21.50;99.90;;;;;;6231189;22;20397;-91
2021/08/14 07:17:51;;;;;;;11.63;10.40;;;21.60;99.90;;;;;;6231410;23;20402;-91
2021/08/14 07:20:17;;;;;;;12.10;11.00;;;21.70;99.90;;;;;;6232631;23;20155;-90
2021/08/14 07:22:43;;;;;;;11.37;10.27;;;21.70;99.90;;;;;;6232168;23;20166;-88
2021/08/14 07:25:16;;;;;;;11.83;10.73;;;21.80;99.90;;;;;;6232048;23;20216;-90
2021/08/14 07:27:51;;;;;;;11.23;10.07;;;22.00;99.90;;;;;;6237503;22;20189;-94
2021/08/14 07:30:20;;;;;;;11.53;10.43;;;22.10;99.90;;;;;;6208782;23;20427;-91
2021/08/14 07:32:46;;;;;;;11.10;9.60;;;22.00;99.90;;;;;;6232975;23;20544;-89
2021/08/14 07:35:12;;;;;;;11.03;10.07;;;22.00;99.90;;;;;;6236734;22;20420;-90
2021/08/14 07:37:48;;;;;;;13.57;10.67;;;22.10;99.90;;;;;;6233790;23;20159;-88
2021/08/14 07:40:23;;;;;;;11.30;10.30;;;22.10;99.90;;;;;;6231562;23;20163;-90
2021/08/14 07:42:49;;;;;;;10.53;9.47;;;22.40;99.90;;;;;;6233160;23;20436;-87
2021/08/14 07:45:18;;;;;;;11.50;10.47;;;22.60;99.90;;;;;;6230031;23;20398;-88
2021/08/14 07:47:50;;;;;;;11.90;10.80;;;22.80;99.90;;;;;;6233295;23;20166;-87
2021/08/14 07:50:21;;;;;;;11.10;10.00;;;23.00;99.90;;;;;;6231438;23;20917;-87
2021/08/14 07:52:49;;;;;;;11.00;9.93;;;23.20;99.90;;;;;;6232265;23;20494;-86
2021/08/14 07:55:14;;;;;;;10.83;9.93;;;23.40;99.90;;;;;;6233529;23;20394;-85
2021/08/14 07:57:42;;;;;;;10.83;9.83;;;23.60;99.90;;;;;;6233629;23;20481;-86
2021/08/14 08:00:34;;;;;;;10.43;9.43;;;23.70;99.90;;;;;;6207747;23;20673;-88
2021/08/14 08:03:00;;;;;;;10.70;9.50;;;23.90;99.90;;;;;;6249019;22;20891;-96
2021/08/14 11:20:25;;;;;;;10.77;9.87;;;30.70;92.90;;;;;;6259242;22;20439;-92
2021/08/14 11:22:51;;;;;;;16.57;10.20;;;31.20;92.10;;;;;;6209716;23;20413;-91
2021/08/14 11:25:39;;;;;;;9.43;8.63;;;31.30;92.30;;;;;;6209685;23;20447;-93
2021/08/14 11:28:11;;;;;;;8.83;7.90;;;31.20;93.10;;;;;;6209376;23;20772;-90
2021/08/14 11:30:48;;;;;;;8.50;7.70;;;31.20;90.50;;;;;;6207435;23;20448;-90
2021/08/14 11:33:17;;;;;;;7.87;7.20;;;31.20;93.30;;;;;;6208784;23;20476;-92
2021/08/14 11:35:43;;;;;;;8.87;8.07;;;31.10;91.50;;;;;;6208171;23;20720;-91
2021/08/14 11:38:11;;;;;;;9.10;8.20;;;30.80;91.90;;;;;;6209702;23;20410;-91
2021/08/14 11:40:43;;;;;;;9.23;8.33;;;31.10;91.70;;;;;;6207553;23;20163;-92
2021/08/14 11:43:14;;;;;;;60.77;56.17;;;31.00;88.60;;;;;;6209650;23;20884;-94
2021/08/14 11:45:44;;;;;;;7.53;6.93;;;31.20;90.60;;;;;;6208812;23;20394;-91
2021/08/14 11:48:13;;;;;;;8.00;7.30;;;31.90;89.20;;;;;;6210764;23;20397;-91
2021/08/14 11:50:48;;;;;;;8.13;7.47;;;31.40;85.30;;;;;;6208569;23;20724;-86
2021/08/14 16:53:44;;;;;;;9.40;8.70;;;43.20;43.50;;;;;;6262611;22;20193;-87
2021/08/14 16:56:09;;;;;;;9.55;8.80;;;41.90;44.20;;;;;;6292875;22;20262;-87
2021/08/14 16:58:35;;;;;;;8.50;7.85;;;41.60;46.80;;;;;;6321368;22;20157;-86
2021/08/14 17:01:02;;;;;;;8.25;7.53;;;42.20;45.40;;;;;;6318160;22;20165;-89
2021/08/14 17:03:28;;;;;;;8.82;7.45;;;41.60;45.30;;;;;;6320294;22;20157;-88
2021/08/14 17:05:53;;;;;;;7.97;7.47;;;41.10;46.40;;;;;;6319364;22;20167;-89
2021/08/14 17:08:21;;;;;;;7.88;7.30;;;41.70;45.20;;;;;;6294798;22;20198;-87
2021/08/14 17:10:47;;;;;;;8.48;7.88;;;42.20;44.70;;;;;;6318862;22;20169;-88
2021/08/14 17:13:14;;;;;;;8.15;7.55;;;41.80;44.90;;;;;;6318671;22;20238;-88
2021/08/14 17:15:43;;;;;;;8.15;7.65;;;41.80;44.40;;;;;;6319421;22;20534;-90
2021/08/14 17:18:10;;;;;;;9.05;8.30;;;41.60;45.20;;;;;;6295207;22;20187;-90
2021/08/14 17:20:54;;;;;;;8.25;7.55;;;40.80;45.70;;;;;;6321691;22;20617;-89
2021/08/14 17:23:20;;;;;;;8.23;7.63;;;40.60;46.80;;;;;;6299851;22;20149;-89
2021/08/14 17:25:45;;;;;;;9.05;8.25;;;40.20;47.30;;;;;;6322744;22;20267;-89
2021/08/14 17:28:11;;;;;;;8.98;8.32;;;39.00;48.00;;;;;;6313969;22;20238;-89
2021/08/14 17:30:38;;;;;;;9.23;8.52;;;37.30;52.00;;;;;;6320726;22;20222;-89
2021/08/14 17:33:04;;;;;;;10.47;9.40;;;34.80;58.60;;;;;;6323557;22;20192;-89
2021/08/14 17:35:30;;;;;;;9.80;9.00;;;32.70;67.00;;;;;;6294915;22;20164;-89
2021/08/14 17:37:56;;;;;;;12.30;10.40;;;31.20;73.00;;;;;;6319747;22;20403;-89
2021/08/14 17:40:23;;;;;;;10.53;9.63;;;30.10;78.20;;;;;;6296393;22;20515;-89
2021/08/14 17:42:53;;;;;;;10.47;9.57;;;29.50;80.80;;;;;;6319816;22;20324;-89
2021/08/14 17:45:18;;;;;;;10.00;9.30;;;29.10;82.60;;;;;;6295190;22;20441;-89
2021/08/14 17:47:44;;;;;;;9.80;9.00;;;28.90;85.00;;;;;;6321334;22;20399;-89
2021/08/14 17:50:13;;;;;;;11.03;10.13;;;28.80;86.20;;;;;;6296446;22;20657;-89
2021/08/14 17:52:39;;;;;;;10.50;9.70;;;28.70;88.00;;;;;;6295758;22;20615;-89
2021/08/14 17:55:05;;;;;;;12.17;10.70;;;28.40;90.60;;;;;;6319992;22;20423;-89
2021/08/14 17:57:34;;;;;;;10.90;10.00;;;28.20;91.90;;;;;;6320131;22;20240;-89
2021/08/14 17:59:59;;;;;;;10.50;9.50;;;27.90;93.30;;;;;;6295672;22;20407;-89
2021/08/14 18:02:25;;;;;;;11.03;10.17;;;27.70;94.30;;;;;;6294859;22;20738;-89
2021/08/14 18:04:51;;;;;;;12.03;11.03;;;27.50;95.10;;;;;;6293823;22;20164;-89
2021/08/14 18:07:17;;;;;;;10.87;9.83;;;27.30;96.00;;;;;;6293634;22;20747;-88
2021/08/14 18:09:43;;;;;;;10.80;9.80;;;27.10;97.80;;;;;;6319638;22;20890;-91
2021/08/14 18:12:12;;;;;;;10.63;9.83;;;26.80;99.20;;;;;;6321307;22;20709;-90
2021/08/14 18:14:39;;;;;;;12.20;11.10;;;26.80;99.90;;;;;;6321293;22;20441;-89
2021/08/14 18:17:20;;;;;;;11.97;11.00;;;26.50;99.90;;;;;;6295856;22;20403;-91
2021/08/14 18:19:45;;;;;;;12.23;11.10;;;26.40;99.90;;;;;;6293084;22;20735;-91
2021/08/14 18:22:14;;;;;;;11.97;10.97;;;26.20;99.90;;;;;;6295060;22;20402;-91
2021/08/14 18:24:46;;;;;;;11.57;10.60;;;26.00;99.90;;;;;;6295899;22;20158;-91
2021/08/14 18:27:12;;;;;;;11.60;10.60;;;25.90;99.90;;;;;;6295928;22;20882;-95
2021/08/14 18:29:38;;;;;;;11.70;10.70;;;25.70;99.90;;;;;;6295710;22;20855;-96
2021/08/14 18:32:05;;;;;;;13.17;11.97;;;25.60;99.90;;;;;;6296930;22;20679;-95
2021/08/14 18:34:31;;;;;;;11.77;10.70;;;25.40;99.90;;;;;;6298785;22;20492;-94
2021/08/14 18:36:56;;;;;;;11.83;10.70;;;25.40;99.90;;;;;;6294464;22;20481;-94
2021/08/14 18:39:23;;;;;;;11.10;10.10;;;25.20;99.90;;;;;;6295798;22;20167;-94
2021/08/14 18:41:58;;;;;;;10.63;9.10;;;25.10;99.90;;;;;;6296828;22;20161;-95
2021/08/14 18:44:54;;;;;;;11.50;10.27;;;25.10;99.90;;;;;;6322350;22;20386;-94
2021/08/14 18:47:27;;;;;;;11.80;10.63;;;24.90;99.90;;;;;;6295794;22;20449;-94
2021/08/14 18:49:53;;;;;;;15.00;10.57;;;24.80;99.90;;;;;;6297162;22;20776;-93
2021/08/14 18:52:18;;;;;;;10.43;9.53;;;24.60;99.90;;;;;;6299294;22;20431;-94
2021/08/14 18:54:44;;;;;;;12.10;11.00;;;24.60;99.90;;;;;;6322593;22;20192;-95
2021/08/14 19:46:21;;;;;;;12.77;10.57;;;23.30;99.90;;;;;;6295537;22;20439;-88
2021/08/14 19:48:47;;;;;;;11.30;10.30;;;23.30;99.90;;;;;;6271575;22;20723;-88
2021/08/14 19:51:13;;;;;;;11.10;10.10;;;23.30;99.90;;;;;;6269315;22;20165;-88
2021/08/14 19:53:39;;;;;;;11.10;10.20;;;23.30;99.90;;;;;;6270602;22;20221;-87
2021/08/14 19:56:04;;;;;;;11.40;10.43;;;23.20;99.90;;;;;;6268882;22;20400;-89
2021/08/14 19:58:30;;;;;;;10.70;9.90;;;23.20;99.90;;;;;;6270715;22;20161;-88
2021/08/14 20:01:16;;;;;;;10.37;9.57;;;23.00;99.90;;;;;;6269975;22;20185;-89
2021/08/14 20:03:42;;;;;;;12.47;11.30;;;23.00;99.90;;;;;;6269869;22;20168;-89
2021/08/14 20:06:07;;;;;;;11.60;10.60;;;22.80;99.90;;;;;;6268043;22;20435;-89
2021/08/14 20:08:33;;;;;;;11.00;9.97;;;22.80;99.90;;;;;;6269408;22;20165;-88
2021/08/14 20:10:59;;;;;;;11.13;10.17;;;22.70;99.90;;;;;;6269205;22;20596;-89
2021/08/14 20:13:31;;;;;;;11.77;10.70;;;22.60;99.90;;;;;;6270332;22;20193;-89
2021/08/14 20:15:57;;;;;;;11.80;10.80;;;22.60;99.90;;;;;;6268594;22;20237;-89
2021/08/14 20:18:24;;;;;;;11.97;10.80;;;22.50;99.90;;;;;;6296189;22;20388;-90
2021/08/14 20:20:59;;;;;;;12.43;11.20;;;22.40;99.90;;;;;;6269783;22;20715;-90
2021/08/14 20:23:25;;;;;;;11.10;10.10;;;22.30;99.90;;;;;;6270087;22;20396;-89
2021/08/14 20:25:56;;;;;;;12.07;11.00;;;22.40;99.90;;;;;;6270605;22;20415;-90
2021/08/14 20:28:28;;;;;;;12.30;11.10;;;22.50;99.90;;;;;;6294693;22;20564;-92
2021/08/14 20:30:53;;;;;;;13.17;11.90;;;22.60;99.90;;;;;;6269827;22;20431;-91
2021/08/14 20:33:19;;;;;;;12.80;11.50;;;22.50;99.90;;;;;;6270274;22;20439;-90
2021/08/14 20:35:45;;;;;;;12.30;11.10;;;22.30;99.90;;;;;;6268769;22;20165;-90
2021/08/14 20:38:11;;;;;;;12.40;10.90;;;22.30;99.90;;;;;;6270204;22;20654;-91
2021/08/14 20:40:39;;;;;;;13.53;12.17;;;22.20;99.90;;;;;;6268572;22;20162;-91
2021/08/14 20:43:05;;;;;;;12.37;11.20;;;22.20;99.90;;;;;;6265913;22;20537;-91
2021/08/14 20:45:30;;;;;;;12.60;11.43;;;22.20;99.90;;;;;;6270489;22;20408;-91
2021/08/14 20:48:00;;;;;;;11.60;10.70;;;22.20;99.90;;;;;;6268898;22;20583;-93
2021/08/14 20:50:26;;;;;;;11.10;10.20;;;22.20;99.90;;;;;;6294447;22;20153;-93
2021/08/14 20:52:52;;;;;;;15.40;11.40;;;22.20;99.90;;;;;;6295428;22;20439;-92
2021/08/14 20:55:18;;;;;;;12.43;11.00;;;22.20;99.90;;;;;;6269316;22;20493;-90
2021/08/14 20:58:00;;;;;;;11.77;10.80;;;22.10;99.90;;;;;;6268743;22;20199;-92
2021/08/14 21:00:29;;;;;;;12.13;10.93;;;22.00;99.90;;;;;;6295571;22;20161;-94
2021/08/14 21:03:00;;;;;;;12.80;11.50;;;22.00;99.90;;;;;;6268344;22;20459;-93
2021/08/14 21:05:26;;;;;;;11.60;10.60;;;22.00;99.90;;;;;;6268766;22;20465;-92
2021/08/14 21:07:53;;;;;;;11.80;10.70;;;21.90;99.90;;;;;;6269335;22;20463;-92
2021/08/14 21:10:20;;;;;;;12.50;10.70;;;21.90;99.90;;;;;;6244064;22;20399;-92
2021/08/14 21:12:45;;;;;;;13.30;12.00;;;21.90;99.90;;;;;;6268799;22;20443;-91
2021/08/14 21:15:11;;;;;;;13.30;10.30;;;21.90;99.90;;;;;;6269074;22;20392;-92
2021/08/14 21:17:37;;;;;;;12.60;11.50;;;21.80;99.90;;;;;;6269485;22;20199;-92
2021/08/14 21:20:04;;;;;;;11.73;10.63;;;21.80;99.90;;;;;;6268765;22;20165;-92
2021/08/14 21:22:29;;;;;;;11.80;10.90;;;21.80;99.90;;;;;;6268298;22;20388;-92
2021/08/14 21:24:55;;;;;;;12.10;11.03;;;21.80;99.90;;;;;;6266617;22;20398;-91
2021/08/14 21:27:21;;;;;;;12.03;11.03;;;21.80;99.90;;;;;;6237659;22;20165;-91
2021/08/14 21:29:47;;;;;;;10.83;9.97;;;22.00;99.90;;;;;;6267924;22;20243;-92
2021/08/14 21:32:12;;;;;;;11.87;10.80;;;22.00;99.90;;;;;;6268030;22;20208;-91
2021/08/14 21:34:38;;;;;;;11.57;10.57;;;21.90;99.90;;;;;;6263263;22;20158;-92
2021/08/14 21:37:04;;;;;;;12.73;11.43;;;22.00;99.90;;;;;;6268725;22;20180;-92
2021/08/14 21:39:30;;;;;;;11.60;10.40;;;21.90;99.90;;;;;;6268005;22;20165;-94